Time;durP1;ratioP1;P1;durP2;ratioP2;P2;SDS_P1;SDS_P2;PMS_P1;PMS_P2;Temp;Humidity;BMP_temperature;BMP_pressure;BME280_temperature;BME280_humidity;BME280_pressure;Samples;Min_cycle;Max_cycle;Signal;HPM_P1;HPM_P2
2021/12/09 00:00:29;;;;;;;18.70;12.33;;;;;;;3.91;100.00;96828.63;5102164;28;20297;-67
2021/12/09 00:02:57;;;;;;;19.87;12.60;;;;;;;3.94;100.00;96825.84;5098453;28;20210;-66
2021/12/09 00:05:24;;;;;;;22.27;14.87;;;;;;;3.96;100.00;96823.97;5104841;28;20210;-67
2021/12/09 00:07:52;;;;;;;21.50;14.57;;;;;;;4.01;100.00;96834.97;5113679;28;20566;-67
2021/12/09 00:10:19;;;;;;;23.20;14.83;;;;;;;4.07;100.00;96826.75;5100958;28;20217;-67
2021/12/09 00:12:46;;;;;;;23.47;13.07;;;;;;;4.02;100.00;96831.41;5098658;28;20272;-67
2021/12/09 00:15:13;;;;;;;17.60;11.97;;;;;;;4.01;100.00;96834.97;5098414;28;20220;-67
2021/12/09 00:17:39;;;;;;;17.10;10.57;;;;;;;3.99;100.00;96825.56;5098373;28;20234;-67
2021/12/09 00:20:10;;;;;;;10.77;8.10;;;;;;;3.99;100.00;96825.56;5100845;28;20215;-66
2021/12/09 00:22:36;;;;;;;11.93;7.80;;;;;;;3.92;100.00;96830.31;5096396;28;20219;-66
2021/12/09 00:25:04;;;;;;;13.47;8.03;;;;;;;3.95;100.00;96831.91;5098395;28;20218;-66
2021/12/09 00:27:30;;;;;;;11.23;6.63;;;;;;;3.91;100.00;96840.88;5098356;28;20210;-66
2021/12/09 00:29:56;;;;;;;10.97;6.73;;;;;;;3.88;100.00;96835.84;5100481;28;20217;-66
2021/12/09 00:32:23;;;;;;;11.10;6.60;;;;;;;3.89;100.00;96846.22;5097801;28;20692;-66
2021/12/09 00:34:51;;;;;;;8.50;5.17;;;;;;;3.88;100.00;96836.69;5098010;28;20213;-65
2021/12/09 00:37:24;;;;;;;10.87;6.03;;;;;;;3.84;100.00;96843.03;5097731;28;20231;-65
2021/12/09 00:39:53;;;;;;;10.40;5.83;;;;;;;3.70;100.00;96845.69;5110424;28;20214;-66
2021/12/09 00:42:21;;;;;;;9.27;5.43;;;;;;;3.67;100.00;96842.44;5112728;28;20211;-65
2021/12/09 00:44:47;;;;;;;9.13;5.57;;;;;;;3.66;100.00;96846.81;5113089;28;20238;-65
2021/12/09 00:47:14;;;;;;;9.00;6.17;;;;;;;3.68;100.00;96844.91;5112663;28;20210;-65
2021/12/09 00:49:40;;;;;;;12.70;6.27;;;;;;;3.68;100.00;96851.94;5108554;28;20207;-65
2021/12/09 00:52:07;;;;;;;7.30;5.53;;;;;;;3.59;100.00;96855.09;5112770;28;20232;-65
2021/12/09 00:54:36;;;;;;;12.07;6.40;;;;;;;3.49;100.00;96860.06;5112537;28;20211;-64
2021/12/09 00:57:03;;;;;;;9.20;5.83;;;;;;;3.50;100.00;96858.28;5112444;28;20270;-64
2021/12/09 00:59:30;;;;;;;8.17;5.43;;;;;;;3.59;100.00;96855.09;5109756;28;20211;-63
2021/12/09 01:01:56;;;;;;;10.87;5.43;;;;;;;3.56;100.00;96850.91;5112716;28;20210;-62
2021/12/09 01:04:23;;;;;;;7.67;5.17;;;;;;;3.50;100.00;96861.75;5112517;27;20211;-63
2021/12/09 01:06:49;;;;;;;5.90;3.83;;;;;;;3.45;100.00;96866.41;5099211;28;20230;-62
2021/12/09 01:09:16;;;;;;;4.80;3.77;;;;;;;3.40;100.00;96863.25;5099819;28;20214;-61
2021/12/09 01:11:44;;;;;;;6.70;4.00;;;;;;;3.41;100.00;96877.97;5097497;28;20246;-61
2021/12/09 01:14:11;;;;;;;7.13;3.70;;;;;;;3.40;100.00;96873.69;5101369;28;20210;-61
2021/12/09 01:16:38;;;;;;;7.67;4.30;;;;;;;3.33;100.00;96875.00;5096808;28;20217;-61
2021/12/09 01:19:06;;;;;;;6.30;4.17;;;;;;;3.41;100.00;96872.75;5099420;28;20234;-61
2021/12/09 01:21:33;;;;;;;5.17;3.53;;;;;;;3.39;100.00;96865.94;5097119;28;20214;-61
2021/12/09 01:23:59;;;;;;;7.90;4.40;;;;;;;3.37;100.00;96866.03;5097230;28;20215;-61
2021/12/09 01:26:27;;;;;;;7.77;4.30;;;;;;;3.40;100.00;96873.69;5097158;28;20214;-61
2021/12/09 01:28:59;;;;;;;7.93;4.80;;;;;;;3.45;100.00;96869.03;5099717;28;20297;-61
2021/12/09 01:31:30;;;;;;;7.00;4.43;;;;;;;3.52;100.00;96872.94;5096745;28;20676;-61
2021/12/09 01:34:01;;;;;;;8.43;4.73;;;;;;;3.57;100.00;96870.91;5097169;28;20648;-62
2021/12/09 01:36:28;;;;;;;10.13;5.40;;;;;;;3.61;100.00;96867.13;5096985;28;20219;-62
2021/12/09 01:38:54;;;;;;;8.73;5.23;;;;;;;3.63;100.00;96878.34;5098846;28;20235;-62
2021/12/09 01:41:21;;;;;;;7.97;5.60;;;;;;;3.67;100.00;96885.03;5095158;28;20218;-62
2021/12/09 01:43:48;;;;;;;10.03;6.10;;;;;;;3.70;100.00;96884.88;5096601;28;20207;-62
2021/12/09 01:46:20;;;;;;;11.37;6.60;;;;;;;3.70;100.00;96887.50;5096674;28;20218;-62
2021/12/09 01:48:48;;;;;;;10.07;6.60;;;;;;;3.71;100.00;96886.53;5110019;28;20248;-62
2021/12/09 01:51:15;;;;;;;10.77;7.10;;;;;;;3.71;100.00;96885.69;5111660;28;20214;-63
2021/12/09 01:53:43;;;;;;;11.90;7.07;;;;;;;3.73;100.00;96884.66;5111682;28;20217;-62
2021/12/09 01:56:12;;;;;;;11.63;7.27;;;;;;;3.77;100.00;96885.31;5110988;28;20560;-63
2021/12/09 01:58:39;;;;;;;11.20;7.83;;;;;;;3.76;100.00;96892.34;5110515;28;20613;-63
2021/12/09 02:01:07;;;;;;;11.00;6.87;;;;;;;3.74;100.00;96880.28;5112320;28;20217;-63
2021/12/09 02:03:35;;;;;;;12.47;6.30;;;;;;;3.70;100.00;96870.97;5112067;28;20221;-63
2021/12/09 02:06:02;;;;;;;11.70;7.17;;;;;;;3.71;100.00;96870.88;5099817;28;20282;-63
2021/12/09 02:08:28;;;;;;;10.27;6.67;;;;;;;3.69;100.00;96870.13;5111765;28;20207;-63
2021/12/09 02:10:55;;;;;;;10.03;6.97;;;;;;;3.71;100.00;96878.72;5111758;28;20239;-63
2021/12/09 02:13:22;;;;;;;12.67;6.80;;;;;;;3.69;100.00;96885.81;5111095;28;20219;-63
2021/12/09 02:15:51;;;;;;;13.50;7.00;;;;;;;3.72;100.00;96883.00;5110356;28;20666;-63
2021/12/09 02:18:18;;;;;;;12.23;7.43;;;;;;;3.72;100.00;96893.44;5109369;28;20285;-63
2021/12/09 02:20:46;;;;;;;10.27;7.03;;;;;;;3.72;100.00;96896.06;5111058;28;20267;-64
2021/12/09 02:23:16;;;;;;;14.87;7.30;;;;;;;3.70;100.00;96905.78;5111328;28;20218;-63
2021/12/09 02:25:45;;;;;;;12.13;7.00;;;;;;;3.73;100.00;96909.97;5109758;28;20218;-63
2021/12/09 02:28:12;;;;;;;9.17;6.87;;;;;;;3.73;100.00;96921.25;5109176;28;20218;-63
2021/12/09 02:30:39;;;;;;;12.97;7.23;;;;;;;3.71;100.00;96928.34;5095736;28;20690;-63
2021/12/09 02:33:05;;;;;;;11.60;6.47;;;;;;;3.74;100.00;96928.16;5094346;28;20219;-64
2021/12/09 02:35:32;;;;;;;14.03;7.47;;;;;;;3.78;100.00;96940.09;5096896;28;20607;-64
2021/12/09 02:38:00;;;;;;;13.80;7.87;;;;;;;3.78;100.00;96940.09;5097040;28;20233;-64
2021/12/09 02:40:26;;;;;;;11.77;7.10;;;;;;;3.75;100.00;96939.44;5095561;28;20247;-64
2021/12/09 02:42:53;;;;;;;14.43;6.77;;;;;;;3.73;100.00;96946.56;5095844;28;20581;-64
2021/12/09 02:45:20;;;;;;;10.50;6.73;;;;;;;3.72;100.00;96950.94;5096052;28;20215;-65
2021/12/09 02:47:47;;;;;;;13.87;7.90;;;;;;;3.63;100.00;96951.50;5097383;28;20230;-65
2021/12/09 02:50:13;;;;;;;15.10;8.07;;;;;;;3.64;100.00;96945.34;5095669;28;20604;-65
2021/12/09 02:52:40;;;;;;;12.10;6.97;;;;;;;3.61;100.00;96937.66;5095781;28;20218;-64
2021/12/09 02:55:09;;;;;;;12.17;7.73;;;;;;;3.62;100.00;96933.28;5095983;28;20636;-64
2021/12/09 02:57:36;;;;;;;13.53;7.97;;;;;;;3.59;100.00;96931.72;5097333;28;20238;-64
2021/12/09 03:00:05;;;;;;;13.53;7.67;;;;;;;3.60;100.00;96920.31;5094546;28;20227;-64
2021/12/09 03:02:31;;;;;;;15.67;8.03;;;;;;;3.55;100.00;96919.75;5095772;28;20218;-65
2021/12/09 03:05:01;;;;;;;11.13;7.27;;;;;;;3.56;100.00;96929.25;5097654;28;20210;-64
2021/12/09 03:07:31;;;;;;;14.53;7.87;;;;;;;3.57;100.00;96933.59;5109209;28;20731;-64
2021/12/09 03:10:01;;;;;;;15.53;7.63;;;;;;;3.60;100.00;96930.78;5095621;28;20206;-65
2021/12/09 03:12:31;;;;;;;12.27;7.07;;;;;;;3.58;100.00;96930.03;5095706;28;20249;-64
2021/12/09 03:14:58;;;;;;;13.60;6.77;;;;;;;3.56;100.00;96931.88;5097380;28;20226;-65
2021/12/09 03:17:25;;;;;;;10.80;7.00;;;;;;;3.58;100.00;96929.19;5096014;28;20226;-64
2021/12/09 03:19:53;;;;;;;12.17;6.10;;;;;;;3.55;100.00;96932.81;5095589;28;20214;-64
2021/12/09 03:22:20;;;;;;;10.53;6.37;;;;;;;3.57;100.00;96938.81;5095591;28;20242;-64
2021/12/09 03:24:47;;;;;;;15.13;8.27;;;;;;;3.56;100.00;96936.28;5095260;28;20225;-65
2021/12/09 03:27:14;;;;;;;8.53;6.30;;;;;;;3.50;100.00;96929.66;5095919;28;20679;-65
2021/12/09 03:29:42;;;;;;;11.97;6.50;;;;;;;3.51;100.00;96930.50;5095334;28;20215;-64
2021/12/09 03:32:13;;;;;;;14.73;6.20;;;;;;;3.53;100.00;96929.47;5095495;28;20215;-65
2021/12/09 03:34:42;;;;;;;11.50;5.67;;;;;;;3.46;100.00;96937.75;5097589;28;20211;-64
2021/12/09 03:37:11;;;;;;;12.10;6.70;;;;;;;3.46;100.00;96946.44;5095378;28;20215;-65
2021/12/09 03:39:40;;;;;;;12.70;6.80;;;;;;;3.46;100.00;96935.16;5096833;28;20242;-65
2021/12/09 03:42:08;;;;;;;10.23;6.53;;;;;;;3.47;100.00;96950.72;5099283;28;20220;-64
2021/12/09 03:44:35;;;;;;;11.60;5.80;;;;;;;3.45;100.00;96952.59;5102638;28;20217;-65
2021/12/09 03:47:09;;;;;;;9.93;6.23;;;;;;;3.38;100.00;96951.28;5099110;28;20218;-65
2021/12/09 03:49:35;;;;;;;7.77;6.17;;;;;;;3.38;100.00;96951.28;5098645;28;20677;-65
2021/12/09 03:52:03;;;;;;;11.40;6.13;;;;;;;3.33;100.00;96947.25;5097242;28;21120;-65
2021/12/09 03:54:30;;;;;;;14.53;6.60;;;;;;;3.36;100.00;96941.88;5101465;28;20590;-65
2021/12/09 03:56:56;;;;;;;9.07;6.37;;;;;;;3.35;100.00;96941.00;5098827;28;20615;-65
2021/12/09 03:59:23;;;;;;;10.27;6.30;;;;;;;3.27;100.00;96953.69;5098403;28;20254;-65
2021/12/09 04:01:50;;;;;;;14.47;6.50;;;;;;;3.27;100.00;96951.09;5098865;28;20215;-65
2021/12/09 04:04:19;;;;;;;10.97;6.20;;;;;;;3.21;100.00;96951.44;5101553;28;20210;-65
2021/12/09 04:06:46;;;;;;;14.63;6.80;;;;;;;3.19;100.00;96950.66;5110571;28;20210;-65
2021/12/09 04:09:15;;;;;;;12.43;6.43;;;;;;;3.19;100.00;96958.50;5107378;27;20214;-65
2021/12/09 04:11:42;;;;;;;13.17;6.90;;;;;;;3.13;100.00;96956.25;5098511;28;20245;-65
2021/12/09 04:14:09;;;;;;;15.10;6.57;;;;;;;3.17;100.00;96951.72;5100761;28;20218;-65
2021/12/09 04:16:36;;;;;;;12.30;5.63;;;;;;;3.20;100.00;96968.03;5096491;28;20214;-65
2021/12/09 04:19:05;;;;;;;12.33;6.33;;;;;;;3.12;100.00;96957.19;5098060;28;20247;-65
2021/12/09 04:21:33;;;;;;;11.70;5.97;;;;;;;3.16;100.00;96956.09;5098404;28;20581;-66
2021/12/09 04:23:59;;;;;;;12.00;6.27;;;;;;;3.12;100.00;96954.56;5100596;28;20221;-66
2021/12/09 04:26:26;;;;;;;13.07;6.60;;;;;;;3.05;100.00;96963.69;5098330;28;20211;-66
2021/12/09 04:28:52;;;;;;;11.57;6.03;;;;;;;2.93;100.00;96964.41;5098229;28;20206;-66
2021/12/09 04:31:20;;;;;;;9.80;6.23;;;;;;;2.88;100.00;96961.22;5097900;28;20218;-66
2021/12/09 04:33:47;;;;;;;10.50;6.00;;;;;;;2.77;100.00;96968.84;5100550;28;20615;-66
2021/12/09 04:36:14;;;;;;;14.60;6.17;;;;;;;2.70;100.00;96972.69;5098105;28;20221;-66
2021/12/09 04:38:43;;;;;;;13.23;5.97;;;;;;;2.69;100.00;96976.25;5097959;28;20238;-66
2021/12/09 04:41:10;;;;;;;15.40;6.13;;;;;;;2.66;100.00;96980.78;5098010;28;20289;-66
2021/12/09 04:43:40;;;;;;;14.17;6.40;;;;;;;2.64;100.00;96983.47;5098851;28;20217;-66
2021/12/09 04:46:06;;;;;;;12.23;5.67;;;;;;;2.68;100.00;96999.78;5097735;28;20773;-66
2021/12/09 04:48:33;;;;;;;10.93;6.10;;;;;;;2.77;100.00;96994.94;5097835;28;20222;-66
2021/12/09 04:50:59;;;;;;;11.40;7.03;;;;;;;2.80;100.00;97005.16;5096863;28;20214;-66
2021/12/09 04:53:26;;;;;;;9.53;6.43;;;;;;;2.92;100.00;97009.69;5100347;28;20587;-66
2021/12/09 04:55:54;;;;;;;10.27;6.70;;;;;;;2.98;100.00;97017.19;5097450;28;20683;-66
2021/12/09 04:58:20;;;;;;;13.77;6.27;;;;;;;3.05;100.00;97015.91;5105800;28;20241;-66
2021/12/09 05:00:48;;;;;;;15.67;6.37;;;;;;;3.13;100.00;97021.50;5112802;28;20210;-66
2021/12/09 05:03:15;;;;;;;9.07;6.20;;;;;;;3.16;100.00;97023.09;5109709;28;20297;-66
2021/12/09 05:05:43;;;;;;;9.30;5.80;;;;;;;3.17;100.00;97025.63;5109218;28;20199;-67
2021/12/09 05:08:13;;;;;;;8.93;5.43;;;;;;;3.18;100.00;97032.53;5095746;28;20611;-67
2021/12/09 05:10:55;;;;;;;12.27;6.40;;;;;;;3.16;100.00;97029.19;5097075;28;20214;-67
2021/12/09 05:13:23;;;;;;;10.23;5.43;;;;;;;3.13;100.00;97029.34;5110961;28;20236;-67
2021/12/09 05:15:51;;;;;;;10.07;5.90;;;;;;;3.12;100.00;97032.06;5108369;28;20214;-67
2021/12/09 05:18:18;;;;;;;8.57;5.40;;;;;;;3.12;100.00;97025.06;5097237;28;20221;-67
2021/12/09 05:20:45;;;;;;;8.03;5.57;;;;;;;3.08;100.00;97038.38;5098177;28;20221;-67
2021/12/09 05:23:12;;;;;;;8.30;5.03;;;;;;;3.01;100.00;97045.69;5098381;28;20241;-67
2021/12/09 05:25:39;;;;;;;8.77;5.50;;;;;;;2.96;100.00;97058.19;5096711;28;20219;-66
2021/12/09 05:28:07;;;;;;;10.33;5.30;;;;;;;2.96;100.00;97063.41;5097013;28;20218;-66
2021/12/09 05:32:07;;;;;;;10.37;5.53;;;;;;;3.09;100.00;97069.63;5098016;28;20264;-66
2021/12/09 05:33:25;;;;;;;11.07;5.20;;;;;;;3.12;100.00;97077.25;5096668;28;20268;-66
2021/12/09 05:35:52;;;;;;;8.50;4.83;;;;;;;3.14;100.00;97074.56;5095052;28;20218;-67
2021/12/09 05:38:18;;;;;;;9.70;4.87;;;;;;;3.15;100.00;97079.72;5096654;28;20226;-67
2021/12/09 05:40:45;;;;;;;9.80;4.97;;;;;;;3.18;100.00;97081.31;5109471;28;20586;-67
2021/12/09 05:43:11;;;;;;;12.00;5.77;;;;;;;3.18;100.00;97095.19;5111657;28;20206;-67
2021/12/09 05:45:39;;;;;;;7.93;4.47;;;;;;;3.23;100.00;97101.00;5111572;28;20206;-67
2021/12/09 05:48:07;;;;;;;10.27;4.70;;;;;;;3.30;100.00;97094.50;5111929;28;20221;-67
2021/12/09 05:50:34;;;;;;;8.60;4.57;;;;;;;3.31;100.00;97100.56;5109059;28;20246;-67
2021/12/09 05:53:00;;;;;;;10.10;4.27;;;;;;;3.27;100.00;97089.47;5111434;28;20215;-67
2021/12/09 05:55:27;;;;;;;7.60;4.80;;;;;;;3.28;100.00;97100.72;5111447;28;20210;-67
2021/12/09 05:57:53;;;;;;;9.37;4.83;;;;;;;3.25;100.00;97104.34;5111400;28;20585;-67
2021/12/09 06:00:20;;;;;;;7.23;4.40;;;;;;;3.17;100.00;97096.13;5107005;28;20249;-66
2021/12/09 06:02:48;;;;;;;9.13;4.60;;;;;;;3.11;100.00;97095.63;5111520;28;20221;-67
2021/12/09 06:05:15;;;;;;;6.47;4.43;;;;;;;3.03;100.00;97096.06;5106401;28;20199;-66
2021/12/09 06:07:41;;;;;;;7.30;4.53;;;;;;;2.99;100.00;97094.53;5096293;28;20215;-66
2021/12/09 06:10:09;;;;;;;7.90;4.50;;;;;;;2.94;100.00;97101.78;5098586;28;20222;-66
2021/12/09 06:12:37;;;;;;;5.40;4.30;;;;;;;2.89;100.00;97109.00;5100959;28;20674;-66
2021/12/09 06:15:04;;;;;;;11.03;4.80;;;;;;;2.85;100.00;97097.06;5111216;28;20214;-66
2021/12/09 06:17:31;;;;;;;11.07;5.20;;;;;;;2.79;100.00;97102.63;5111321;28;20214;-66
2021/12/09 06:19:58;;;;;;;8.47;4.57;;;;;;;2.76;100.00;97100.19;5108444;28;20238;-64
2021/12/09 06:22:25;;;;;;;7.90;4.03;;;;;;;2.77;100.00;97108.84;5110817;28;20694;-65
2021/12/09 06:24:51;;;;;;;7.67;4.40;;;;;;;2.76;100.00;97110.59;5110794;28;20221;-66
2021/12/09 06:27:18;;;;;;;9.10;5.00;;;;;;;2.78;100.00;97105.31;5109492;28;20210;-66
2021/12/09 06:29:44;;;;;;;8.70;4.90;;;;;;;2.86;100.00;97103.97;5108205;28;20210;-67
2021/12/09 06:32:12;;;;;;;8.07;4.13;;;;;;;2.88;100.00;97109.94;5095958;28;20218;-66
2021/12/09 06:34:38;;;;;;;7.53;4.60;;;;;;;2.93;100.00;97105.31;5095982;28;20268;-66
2021/12/09 06:37:06;;;;;;;8.20;4.60;;;;;;;2.90;100.00;97104.66;5095547;28;20217;-67
2021/12/09 06:39:33;;;;;;;7.10;4.53;;;;;;;2.93;100.00;97105.31;5098036;28;20238;-66
2021/12/09 06:41:59;;;;;;;6.50;3.70;;;;;;;2.95;100.00;97113.06;5096731;28;20217;-67
2021/12/09 06:44:26;;;;;;;10.13;4.50;;;;;;;2.98;100.00;97111.13;5105952;28;20581;-66
2021/12/09 06:46:55;;;;;;;7.00;4.40;;;;;;;2.94;100.00;97101.78;5095707;28;20631;-67
2021/12/09 06:49:22;;;;;;;8.47;4.87;;;;;;;2.91;100.00;97109.78;5097519;28;20689;-66
2021/12/09 06:51:49;;;;;;;8.90;4.30;;;;;;;2.91;100.00;97106.31;5095368;28;20211;-66
2021/12/09 06:54:17;;;;;;;8.10;4.30;;;;;;;2.86;100.00;97109.19;5094696;28;20586;-66
2021/12/09 06:56:44;;;;;;;7.07;4.20;;;;;;;2.89;100.00;97097.75;5095455;28;20215;-66
2021/12/09 06:59:10;;;;;;;9.03;4.83;;;;;;;2.88;100.00;97099.50;5097370;28;20581;-66
2021/12/09 07:01:38;;;;;;;6.83;4.00;;;;;;;2.89;100.00;97095.97;5095875;28;20702;-66
2021/12/09 07:04:05;;;;;;;4.23;3.43;;;;;;;2.93;100.00;97100.09;5095641;28;20210;-67
2021/12/09 07:06:31;;;;;;;8.20;4.20;;;;;;;2.96;100.00;97102.56;5105667;28;20206;-66
2021/12/09 07:09:00;;;;;;;6.73;4.10;;;;;;;2.94;100.00;97100.94;5099379;28;20234;-66
2021/12/09 07:11:30;;;;;;;5.60;4.10;;;;;;;2.99;100.00;97098.94;5096190;28;20270;-64
2021/12/09 07:13:57;;;;;;;5.40;3.90;;;;;;;3.01;100.00;97102.28;5095880;28;20218;-65
2021/12/09 07:16:24;;;;;;;8.20;4.10;;;;;;;3.06;100.00;97106.31;5099427;28;20206;-66
2021/12/09 07:18:51;;;;;;;8.60;4.17;;;;;;;3.10;100.00;97113.06;5099729;28;20214;-66
2021/12/09 07:21:18;;;;;;;6.30;3.73;;;;;;;3.12;100.00;97105.97;5099590;28;20210;-66
2021/12/09 07:23:44;;;;;;;7.47;4.07;;;;;;;3.17;100.00;97119.63;5099092;28;20227;-66
2021/12/09 07:26:11;;;;;;;8.67;4.73;;;;;;;3.19;100.00;97122.97;5099376;28;20237;-66
2021/12/09 07:28:39;;;;;;;7.20;4.17;;;;;;;3.22;100.00;97127.19;5113070;28;20218;-66
2021/12/09 07:31:05;;;;;;;8.63;4.43;;;;;;;3.24;100.00;97126.16;5100104;28;20238;-66
2021/12/09 07:33:32;;;;;;;5.43;3.97;;;;;;;3.25;100.00;97127.84;5099218;28;20581;-66
2021/12/09 07:35:58;;;;;;;8.60;4.40;;;;;;;3.27;100.00;97126.00;5099174;28;20215;-66
2021/12/09 07:38:25;;;;;;;7.60;4.17;;;;;;;3.29;100.00;97137.19;5100291;28;20207;-66
2021/12/09 07:40:52;;;;;;;10.67;5.07;;;;;;;3.33;100.00;97136.13;5100064;28;20708;-66
2021/12/09 07:43:18;;;;;;;8.63;4.50;;;;;;;3.35;100.00;97138.63;5098716;28;20221;-66
2021/12/09 07:45:46;;;;;;;9.97;4.23;;;;;;;3.38;100.00;97138.47;5097121;28;20260;-66
2021/12/09 07:48:13;;;;;;;7.80;4.73;;;;;;;3.42;100.00;97140.78;5099580;28;20219;-66
2021/12/09 07:50:39;;;;;;;9.90;4.60;;;;;;;3.42;100.00;97151.25;5100245;28;20217;-66
2021/12/09 07:53:06;;;;;;;7.20;3.90;;;;;;;3.45;100.00;97151.09;5098865;28;20214;-66
2021/12/09 07:55:32;;;;;;;7.00;3.53;;;;;;;3.45;100.00;97156.31;5098836;28;20237;-66
2021/12/09 07:57:59;;;;;;;11.77;3.97;;;;;;;3.45;100.00;97147.63;5099092;28;20214;-66
2021/12/09 08:00:28;;;;;;;7.70;3.87;;;;;;;3.45;100.00;97153.69;5100682;28;20233;-66
2021/12/09 08:02:58;;;;;;;7.97;4.27;;;;;;;3.45;100.00;97148.47;5098429;28;20207;-66
2021/12/09 08:05:27;;;;;;;7.37;3.77;;;;;;;3.47;100.00;97154.44;5104547;28;20203;-66
2021/12/09 08:07:53;;;;;;;9.10;3.90;;;;;;;3.51;100.00;97160.34;5113338;28;20652;-66
2021/12/09 08:10:22;;;;;;;5.87;3.63;;;;;;;3.52;100.00;97157.63;5098154;28;20214;-66
2021/12/09 08:12:49;;;;;;;6.40;4.00;;;;;;;3.55;100.00;97154.84;5098524;28;20313;-66
2021/12/09 08:15:17;;;;;;;7.93;4.00;;;;;;;3.59;100.00;97156.34;5098429;28;20627;-66
2021/12/09 08:17:58;;;;;;;8.27;4.83;;;;;;;3.61;100.00;97156.28;5099112;28;20690;-66
2021/12/09 08:20:27;;;;;;;7.50;4.47;;;;;;;3.62;100.00;97158.78;5098098;28;20239;-65
2021/12/09 08:22:54;;;;;;;7.73;3.97;;;;;;;3.67;100.00;97151.53;5096066;28;20746;-65
2021/12/09 08:25:21;;;;;;;6.97;4.10;;;;;;;3.73;100.00;97151.19;5095222;28;20222;-66
2021/12/09 08:27:47;;;;;;;7.17;3.83;;;;;;;3.77;100.00;97154.44;5099561;28;20221;-66
2021/12/09 08:30:18;;;;;;;6.50;4.07;;;;;;;3.78;100.00;97159.59;5097277;28;20217;-64
2021/12/09 08:32:45;;;;;;;5.77;4.03;;;;;;;3.82;100.00;97160.25;5101877;28;20211;-66
2021/12/09 08:35:12;;;;;;;7.43;4.57;;;;;;;3.87;100.00;97164.31;5104908;28;20237;-66
2021/12/09 08:37:39;;;;;;;6.13;4.37;;;;;;;3.92;100.00;97167.47;5103568;28;20249;-67
2021/12/09 08:40:08;;;;;;;6.97;4.07;;;;;;;3.96;100.00;97168.13;5108384;28;20231;-66
2021/12/09 08:42:36;;;;;;;6.20;4.30;;;;;;;4.01;100.00;97172.19;5107328;28;20219;-66
2021/12/09 08:45:06;;;;;;;6.50;4.47;;;;;;;4.08;100.00;97168.28;5104793;28;20210;-66
2021/12/09 08:47:33;;;;;;;5.60;4.03;;;;;;;4.11;100.00;97173.34;5103376;28;20297;-65
2021/12/09 08:49:59;;;;;;;5.90;4.17;;;;;;;4.17;100.00;97178.16;5098689;28;20257;-65
2021/12/09 08:52:26;;;;;;;8.60;4.70;;;;;;;4.23;100.00;97182.22;5099965;28;20214;-66
2021/12/09 08:54:53;;;;;;;6.70;5.17;;;;;;;4.25;100.00;97175.97;5102278;28;20210;-65
2021/12/09 08:57:22;;;;;;;7.60;5.10;;;;;;;4.31;100.00;97180.84;5099214;28;20210;-66
2021/12/09 08:59:48;;;;;;;6.00;4.97;;;;;;;4.34;100.00;97196.31;5098085;28;20324;-67
2021/12/09 09:02:15;;;;;;;6.80;5.10;;;;;;;4.39;100.00;97190.84;5099632;28;20210;-66
2021/12/09 09:04:42;;;;;;;7.73;5.20;;;;;;;4.33;100.00;97197.25;5100853;28;20223;-66
2021/12/09 09:07:09;;;;;;;7.50;5.40;;;;;;;4.36;100.00;97199.72;5107610;28;20211;-66
2021/12/09 09:09:37;;;;;;;8.80;4.87;;;;;;;4.37;100.00;97206.63;5100136;28;20674;-67
2021/12/09 09:12:08;;;;;;;6.73;5.57;;;;;;;4.38;100.00;97197.84;5103321;28;20239;-66
2021/12/09 09:14:35;;;;;;;8.33;5.70;;;;;;;4.44;100.00;97207.94;5104899;28;20210;-67
2021/12/09 09:17:01;;;;;;;6.87;5.07;;;;;;;4.49;100.00;97210.28;5100859;28;20297;-66
2021/12/09 09:19:28;;;;;;;7.80;5.60;;;;;;;4.51;100.00;97209.25;5103891;28;20214;-66
2021/12/09 09:21:54;;;;;;;7.73;5.57;;;;;;;4.55;100.00;97210.75;5103690;28;20212;-66
2021/12/09 09:24:21;;;;;;;6.57;5.20;;;;;;;4.63;100.00;97208.50;5102036;28;20207;-65
2021/12/09 09:26:47;;;;;;;6.73;5.10;;;;;;;4.65;100.00;97209.25;5105512;28;20206;-66
2021/12/09 09:29:16;;;;;;;5.87;4.90;;;;;;;4.72;100.00;97214.97;5106091;28;20210;-66
2021/12/09 09:31:43;;;;;;;6.60;5.10;;;;;;;4.76;100.00;97206.84;5101007;28;20260;-66
2021/12/09 09:34:11;;;;;;;7.03;5.10;;;;;;;4.75;100.00;97213.00;5107090;28;20214;-66
2021/12/09 09:36:44;;;;;;;6.87;5.20;;;;;;;4.82;100.00;97214.31;5110690;28;20215;-66
2021/12/09 09:39:17;;;;;;;8.17;5.77;;;;;;;4.84;100.00;97211.63;5108632;28;20679;-66
2021/12/09 09:41:45;;;;;;;8.00;5.37;;;;;;;4.85;100.00;97216.75;5109400;28;20239;-66
2021/12/09 09:44:14;;;;;;;6.07;5.47;;;;;;;4.85;100.00;97221.13;5110597;28;20222;-66
2021/12/09 09:46:43;;;;;;;6.37;4.80;;;;;;;4.90;100.00;97222.53;5109457;28;20215;-65
2021/12/09 09:49:10;;;;;;;6.33;5.20;;;;;;;4.95;100.00;97225.72;5108101;28;20207;-65
2021/12/09 09:51:38;;;;;;;7.17;5.33;;;;;;;4.93;100.00;97227.59;5096013;28;20211;-65
2021/12/09 09:54:06;;;;;;;6.17;4.57;;;;;;;4.95;100.00;97233.56;5103842;28;20222;-65
2021/12/09 09:56:34;;;;;;;6.37;5.40;;;;;;;4.97;100.00;97230.88;5097499;28;20210;-65
2021/12/09 09:59:07;;;;;;;6.87;5.00;;;;;;;4.99;100.00;97232.47;5099369;28;20206;-65
2021/12/09 10:01:36;;;;;;;7.77;5.17;;;;;;;5.01;100.00;97235.81;5104358;28;20251;-65
2021/12/09 10:04:14;;;;;;;7.80;5.27;;;;;;;5.02;100.00;97231.44;5095936;28;20215;-65
2021/12/09 10:06:43;;;;;;;8.73;5.20;;;;;;;5.04;100.00;97234.78;5105209;28;20231;-65
2021/12/09 10:09:11;;;;;;;5.73;4.97;;;;;;;5.04;100.00;97233.03;5096361;28;20218;-66
2021/12/09 10:11:38;;;;;;;6.67;5.03;;;;;;;5.09;100.00;97238.81;5097309;28;20240;-65
2021/12/09 10:14:10;;;;;;;5.73;5.13;;;;;;;5.14;100.00;97238.53;5104560;28;20277;-66
2021/12/09 10:16:41;;;;;;;6.33;4.93;;;;;;;5.16;100.00;97239.28;5101752;28;20710;-66
2021/12/09 10:19:16;;;;;;;8.23;5.63;;;;;;;5.20;100.00;97238.97;5095820;28;20217;-65
2021/12/09 10:21:45;;;;;;;9.87;5.97;;;;;;;5.26;100.00;97235.97;5104453;28;20238;-66
2021/12/09 10:24:11;;;;;;;7.37;5.57;;;;;;;5.31;100.00;97239.16;5105965;28;20585;-65
2021/12/09 10:26:40;;;;;;;7.63;5.63;;;;;;;5.41;100.00;97234.19;5108890;28;20677;-66
2021/12/09 10:29:11;;;;;;;7.67;5.80;;;;;;;5.52;100.00;97240.44;5106284;28;20220;-65
2021/12/09 10:31:43;;;;;;;8.77;5.70;;;;;;;5.56;100.00;97244.53;5104078;28;20215;-65
2021/12/09 10:34:17;;;;;;;6.87;6.17;;;;;;;5.60;100.00;97238.16;5097630;28;20219;-66
2021/12/09 10:37:05;;;;;;;8.30;5.90;;;;;;;5.59;100.00;97238.25;5104711;28;20251;-65
2021/12/09 10:39:36;;;;;;;9.40;5.90;;;;;;;5.57;100.00;97240.97;5103588;28;20223;-65
2021/12/09 10:42:06;;;;;;;8.27;6.30;;;;;;;5.45;100.00;97241.75;5100652;28;20235;-65
2021/12/09 10:44:36;;;;;;;8.03;6.40;;;;;;;5.46;100.00;97242.59;5098802;28;20615;-65
2021/12/09 10:47:11;;;;;;;8.73;6.00;;;;;;;5.51;100.00;97246.59;5102469;28;20469;-65
2021/12/09 10:50:02;;;;;;;10.13;6.70;;;;;;;5.54;100.00;97235.94;5100496;28;20691;-64
2021/12/09 10:52:40;;;;;;;9.17;7.37;;;;;;;5.59;100.00;97240.88;5096199;28;20212;-65
2021/12/09 10:55:14;;;;;;;8.13;6.43;;;;;;;5.62;100.00;97233.66;5100986;28;20222;-65
2021/12/09 10:57:41;;;;;;;12.33;6.87;;;;;;;5.63;100.00;97240.59;5103920;28;20216;-65
2021/12/09 11:00:27;;;;;;;9.97;7.10;;;;;;;5.64;100.00;97230.97;5098767;28;20234;-65
2021/12/09 11:02:59;;;;;;;10.47;7.60;;;;;;;5.67;100.00;97226.34;5101315;28;20213;-65
2021/12/09 11:05:26;;;;;;;10.40;7.37;;;;;;;5.61;100.00;97226.75;5100026;28;20211;-65
2021/12/09 11:07:54;;;;;;;11.43;7.40;;;;;;;5.57;100.00;97222.63;5099860;28;20243;-65
2021/12/09 11:10:23;;;;;;;11.70;7.60;;;;;;;5.56;100.00;97218.31;5101482;28;20677;-65
2021/12/09 11:12:52;;;;;;;10.37;7.60;;;;;;;5.58;100.00;97216.47;5105509;28;20238;-65
2021/12/09 11:15:20;;;;;;;10.83;7.60;;;;;;;5.65;100.00;97214.28;5097423;28;20216;-66
2021/12/09 11:17:50;;;;;;;10.67;7.70;;;;;;;5.80;100.00;97221.22;5097711;28;20224;-65
2021/12/09 11:20:44;;;;;;;10.50;7.17;;;;;;;5.90;100.00;97220.50;5106208;28;20232;-65
2021/12/09 11:23:31;;;;;;;11.60;7.57;;;;;;;5.93;100.00;97219.47;5095581;28;20223;-65
2021/12/09 11:26:00;;;;;;;9.97;7.57;;;;;;;5.95;100.00;97213.19;5098098;28;20220;-65
2021/12/09 11:28:27;;;;;;;9.43;7.43;;;;;;;5.96;100.00;97217.47;5103209;28;20217;-65
2021/12/09 11:31:08;;;;;;;9.30;6.90;;;;;;;5.99;100.00;97216.44;5096337;28;20217;-67
2021/12/09 11:33:40;;;;;;;9.23;7.47;;;;;;;5.95;100.00;97210.56;5105239;28;20591;-65